VCCC/RML METAR and TAF weather

Enter ICAO airport designator
Station Type Date Time Source
VCCC METAR 2023/02/05 15:00 UTC NOAA

VCCC 051500Z 02007KT 9999 FEW018 28/22 Q1009 A2980


Station Type Date Time Source
VCCC Decoded METAR 2023/02/05 15:00 UTC NOAA

Ratmalana, Sri Lanka (VCCC) 06-49N 079-53E 5M
Feb 05, 2023 - 10:00 AM EST / 2023.02.05 1500 UTC
Wind: from the NNE (020 degrees) at 8 MPH (7 KT):0
Visibility: greater than 7 mile(s):0
Sky conditions: mostly clear
Temperature: 82 F (28 C)
Dew Point: 71 F (22 C)
Relative Humidity: 69%
Pressure (altimeter): 29.8 in. Hg (1009 hPa)
ob: VCCC 051500Z 02007KT 9999 FEW018 28/22 Q1009 A2980
cycle: 15

Station Type Date Time Source
VCCC TAF UTC NOAA

Error!

Example: see airport list